• Join FlightAware (Why Join?)
  • Login
  • US Flag 
01:02PM EDT


 

Airport Tracker/Info


-or-


 

Live Flight TrackerFlight Track Log ✈ ASQ6115 ✈ 06-Jun-2013 ✈ KMFE - KIAH

Flight Track Log - Related Links

Times and Time Zones

All times are in EDT time to prevent confusion due to time zone crossing. See the ASQ6115 flight status page for this flight to view local times or setup timezone preferences in your user account.

Time Position Orientation Groundspeed Altitude Reporting Facility
EDT Latitude Longitude Course Direction KTS MPH feet Rate Location/Type
03:37PM 26.1431 -98.2122 142° Southeast 153 176 2,100  Level Houston Center
03:38PM 26.1297 -98.1650 107° East 211 243 3,600 1,500 Climbing Houston Center
03:38PM 26.1439 -98.1494 45° Northeast 212 244 4,000 1,440 Climbing Houston Center
03:39PM 26.1942 -98.0953 44° Northeast 248 285 5,600 1,740 Climbing Houston Center
03:40PM 26.2536 -98.0319 44° Northeast 270 311 7,700 1,920 Climbing Houston Center
03:41PM 26.5000 -98.0750 24° Northeast  Level FlightAware Approximate
03:42PM 26.5665 -98.0427 22° Northeast  Level FlightAware Approximate
03:42PM 26.3075 -97.9714 45° Northeast 274 315 9,600  Level Houston Center
03:43PM 26.3675 -97.9036 45° Northeast 283 326 11,100 1,200 Climbing Houston Center
03:44PM 26.4361 -97.8450 37° Northeast 314 361 12,100 1,200 Climbing Houston Center
03:45PM 26.5308 -97.8197 13° North 324 373 13,700 1,380 Climbing Houston Center
03:46PM 26.6211 -97.7958 13° North 331 381 15,000 1,200 Climbing Houston Center
03:47PM 26.7111 -97.7719 13° North 332 382 16,300 1,080 Climbing Houston Center
03:48PM 26.8100 -97.7439 14° North 339 390 17,300 960 Climbing Houston Center
03:49PM 26.9047 -97.7194 13° North 348 400 18,400 960 Climbing Houston Center
03:50PM 27.0106 -97.6894 14° North 368 423 19,400 960 Climbing Houston Center
03:51PM 27.1097 -97.6636 13° North 367 422 20,400 900 Climbing Houston Center
03:52PM 27.1978 -97.6394 14° North 356 410 21,300 960 Climbing Houston Center
03:53PM 27.3206 -97.6050 14° North 371 427 22,400 960 Climbing Houston Center
03:54PM 27.4233 -97.5764 14° North 379 436 23,400 900 Climbing Houston Center
03:55PM 27.5256 -97.5481 14° North 379 436 24,300 900 Climbing Houston Center
03:56PM 27.6236 -97.4972 25° Northeast 388 447 25,300 960 Climbing Houston Center
03:57PM 27.7161 -97.4347 31° Northeast 389 448 26,300 780 Climbing Houston Center
03:58PM 27.8292 -97.3575 31° Northeast 394 453 27,000 300 Climbing Houston Center
03:59PM 27.9281 -97.2892 31° Northeast 408 470 27,000  Level Houston Center
04:00PM 28.0369 -97.2161 31° Northeast 436 502 27,000  Level Houston Center
04:01PM 28.1450 -97.1422 31° Northeast 451 519 27,000  Level Houston Center
04:02PM 28.2544 -97.0675 31° Northeast 457 526 27,000  Level Houston Center
04:03PM 28.3656 -96.9911 31° Northeast 465 535 27,000  Level Houston Center
04:04PM 28.4992 -96.8978 32° Northeast 470 541 27,000  Level Houston Center
04:05PM 28.6119 -96.8200 31° Northeast 474 545 27,000  Level Houston Center
04:06PM 28.7253 -96.7425 31° Northeast 476 548 27,000 -120 Level Houston Center
04:07PM 28.8378 -96.6639 31° Northeast 476 548 26,800 -1,020 Descending Houston Center
04:08PM 28.9500 -96.5869 31° Northeast 474 545 25,000 -2,280 Descending Houston Center
04:09PM 29.0775 -96.4978 31° Northeast 458 527 22,100 -2,700 Descending Houston Center
04:11PM 29.1817 -96.4244 32° Northeast 447 514 19,500 -2,520 Descending Houston Center
04:12PM 29.2797 -96.3561 31° Northeast 423 487 17,000 -2,520 Descending Houston Center
04:12PM 29.3300 -96.3225 30° Northeast 397 457 15,900 -2,160 Descending Houston Center
04:13PM 29.3725 -96.2906 33° Northeast 399 459 14,800 -2,220 Descending Houston Center
04:13PM 29.4231 -96.2547 32° Northeast 394 453 13,700 -2,040 Descending Houston Center
04:14PM 29.4667 -96.2233 32° Northeast 399 459 12,700 -1,620 Descending Houston Center
04:14PM 29.5161 -96.1892 31° Northeast 395 455 12,100 -720 Descending Houston Center
04:15PM 29.5644 -96.1286 47° Northeast 395 455 12,000 -120 Descending Houston Center
04:15PM 29.5922 -96.0750 59° Northeast 400 460 12,000  Level Houston Center
04:16PM 29.6200 -96.0189 60° Northeast 400 460 12,000  Level Houston Center
04:16PM 29.6533 -95.9553 59° Northeast 409 471 12,000  Level Houston Center
04:17PM 29.6781 -95.9072 59° Northeast 408 470 12,000  Level Houston Center
04:17PM 29.7067 -95.8481 61° Northeast 411 473 12,000 -420 Level Houston Center
04:18PM 29.7339 -95.7936 60° Northeast 408 470 11,600 -1,140 Descending Houston Center
04:18PM 29.7586 -95.7458 59° Northeast 406 467 11,000 -1,200 Descending Houston Center
04:19PM 29.7903 -95.6828 60° Northeast 404 465 10,400 -900 Descending Houston Center
04:19PM 29.8208 -95.6206 60° Northeast 318 366 9,900 -900 Descending Houston Center
04:20PM 29.8356 -95.5928 59° Northeast 355 409 9,500 -1,800 Descending Houston Center
04:20PM 29.8531 -95.5567 61° Northeast 300 345 8,500 -2,340 Descending Houston Center
04:21PM 29.8850 -95.4925 60° Northeast 305 351 7,100 -1,980 Descending Houston Center
04:21PM 29.8950 -95.4625 69° East 282 325 6,300 -1,080 Descending Houston Center
04:22PM 29.8958 -95.4067 89° East 283 326 6,000 -480 Descending Houston Center
04:22PM 29.8958 -95.3806 90° East 269 310 5,900  Descending Houston Center
04:23PM 29.8969 -95.3194 89° East 275 316 6,000  Climbing Houston Center
04:24PM 29.8969 -95.2342 90° East 268 308 6,000 -540 Level Houston Center
04:24PM 29.8961 -95.2019 92° East 246 283 5,300 -2,340 Descending Houston Center